createdAt,value
2022-11-17T00:00:28.211Z,1.97
2022-11-17T00:02:54.572Z,1.73
2022-11-17T00:05:21.242Z,2.20
2022-11-17T00:07:48.928Z,2.03
2022-11-17T00:10:15.974Z,2.00
2022-11-17T00:13:01.591Z,1.90
2022-11-17T00:15:28.324Z,1.73
2022-11-17T00:18:13.188Z,1.83
2022-11-17T00:20:59.187Z,1.70
2022-11-17T00:23:26.408Z,1.53
2022-11-17T00:25:52.901Z,1.73
2022-11-17T00:28:19.362Z,1.80
2022-11-17T00:31:04.650Z,1.80
2022-11-17T00:33:49.721Z,1.60
2022-11-17T00:36:16.332Z,1.30
2022-11-17T00:38:42.666Z,1.77
2022-11-17T00:41:09.107Z,1.57
2022-11-17T00:43:35.772Z,1.47
2022-11-17T00:46:02.398Z,2.03
2022-11-17T00:48:28.868Z,1.60
2022-11-17T00:50:55.324Z,2.10
2022-11-17T00:53:21.764Z,1.53
2022-11-17T00:55:48.260Z,1.50
2022-11-17T00:58:14.643Z,1.50
2022-11-17T01:00:40.998Z,1.40
2022-11-17T01:03:07.578Z,1.57
2022-11-17T01:05:34.296Z,1.80
2022-11-17T01:08:00.607Z,1.50
2022-11-17T01:10:27.177Z,1.50
2022-11-17T01:12:53.504Z,1.50
2022-11-17T01:15:19.820Z,1.33
2022-11-17T01:17:46.301Z,1.80
2022-11-17T01:20:12.722Z,1.80
2022-11-17T01:22:39.036Z,1.70
2022-11-17T01:25:06.086Z,1.87
2022-11-17T01:27:32.385Z,1.40
2022-11-17T01:29:58.852Z,1.60
2022-11-17T01:32:25.184Z,1.80
2022-11-17T01:34:51.668Z,1.40
2022-11-17T01:37:20.994Z,2.00
2022-11-17T01:39:48.985Z,2.00
2022-11-17T01:42:24.485Z,1.60
2022-11-17T01:45:14.206Z,1.70
2022-11-17T01:47:58.597Z,2.23
2022-11-17T01:50:29.443Z,1.50
2022-11-17T01:52:59.747Z,1.57
2022-11-17T01:55:33.826Z,1.73
2022-11-17T01:58:06.680Z,1.73
2022-11-17T02:00:33.206Z,1.53
2022-11-17T02:03:00.082Z,1.30
2022-11-17T02:05:36.688Z,1.60
2022-11-17T02:08:06.390Z,1.90
2022-11-17T02:10:35.052Z,1.20
2022-11-17T02:13:02.239Z,1.50
2022-11-17T02:15:30.040Z,1.57
2022-11-17T02:17:58.111Z,1.83
2022-11-17T02:20:43.309Z,1.60
2022-11-17T02:23:18.852Z,1.40
2022-11-17T02:26:08.559Z,1.77
2022-11-17T02:28:41.937Z,1.43
2022-11-17T02:31:14.209Z,1.80
2022-11-17T02:34:16.752Z,1.57
2022-11-17T02:37:24.788Z,1.60
2022-11-17T02:39:59.471Z,1.90
2022-11-17T02:42:54.627Z,2.03
2022-11-17T02:45:26.925Z,1.73
2022-11-17T02:47:55.881Z,1.87
2022-11-17T02:50:28.417Z,1.90
2022-11-17T02:52:55.991Z,1.80
2022-11-17T02:55:22.446Z,1.70
2022-11-17T02:57:49.680Z,1.83
2022-11-17T03:00:20.212Z,1.40
2022-11-17T03:03:10.597Z,2.13
2022-11-17T03:06:04.442Z,1.50
2022-11-17T03:08:37.807Z,1.50
2022-11-17T03:11:06.926Z,1.40
2022-11-17T03:13:49.450Z,1.70
2022-11-17T03:16:31.152Z,1.50
2022-11-17T03:19:06.631Z,1.43
2022-11-17T03:21:53.836Z,1.53
2022-11-17T03:24:27.017Z,1.60
2022-11-17T03:27:01.933Z,1.60
2022-11-17T03:29:32.682Z,1.30
2022-11-17T03:32:03.424Z,1.20
2022-11-17T03:34:35.756Z,1.50
2022-11-17T03:37:05.612Z,1.30
2022-11-17T03:39:35.855Z,1.27
2022-11-17T03:42:15.204Z,1.30
2022-11-17T03:44:46.067Z,1.10
2022-11-17T03:47:14.424Z,1.40
2022-11-17T03:50:04.191Z,1.20
2022-11-17T03:52:30.967Z,1.20
2022-11-17T03:54:57.585Z,1.07
2022-11-17T03:57:51.793Z,1.20
2022-11-17T04:00:19.665Z,1.20
2022-11-17T04:02:54.109Z,1.13
2022-11-17T04:05:20.499Z,1.20
2022-11-17T04:07:48.049Z,1.50
2022-11-17T04:10:17.598Z,1.20
2022-11-17T04:13:03.168Z,1.00
2022-11-17T04:15:48.640Z,1.20
2022-11-17T04:18:15.205Z,1.00
2022-11-17T04:20:42.107Z,1.10
2022-11-17T04:23:12.169Z,1.30
2022-11-17T04:26:05.322Z,1.20
2022-11-17T04:28:39.467Z,1.10
2022-11-17T04:31:28.386Z,1.50
2022-11-17T04:34:00.372Z,1.20
2022-11-17T04:36:29.163Z,0.90
2022-11-17T04:38:57.440Z,1.20
2022-11-17T04:41:44.599Z,1.27
2022-11-17T04:44:13.308Z,1.30
2022-11-17T04:46:41.210Z,1.30
2022-11-17T04:49:08.278Z,1.37
2022-11-17T04:51:35.460Z,1.20
2022-11-17T04:54:03.626Z,1.50
2022-11-17T04:56:30.359Z,1.43
2022-11-17T04:58:57.077Z,1.23
2022-11-17T05:01:24.683Z,1.30
2022-11-17T05:03:56.376Z,1.43
2022-11-17T05:06:27.342Z,1.20
2022-11-17T05:08:55.591Z,1.33
2022-11-17T05:11:43.055Z,1.10
2022-11-17T05:14:09.645Z,1.17
2022-11-17T05:16:54.826Z,1.30
2022-11-17T05:19:23.671Z,1.10
2022-11-17T05:21:50.614Z,1.37
2022-11-17T05:24:18.284Z,1.40
2022-11-17T05:26:47.310Z,1.00
2022-11-17T05:29:16.035Z,1.40
2022-11-17T05:31:42.498Z,1.07
2022-11-17T05:34:15.278Z,1.53
2022-11-17T05:36:42.118Z,1.40
2022-11-17T05:39:08.850Z,1.30
2022-11-17T05:41:37.041Z,1.40
2022-11-17T05:44:04.317Z,1.40
2022-11-17T05:46:30.682Z,1.53
2022-11-17T05:48:57.064Z,1.17
2022-11-17T05:51:24.258Z,1.60
2022-11-17T05:53:51.068Z,1.77
2022-11-17T05:56:49.645Z,1.43
2022-11-17T05:59:30.200Z,1.30
2022-11-17T06:02:08.821Z,1.67
2022-11-17T06:04:35.550Z,3.50
2022-11-17T06:07:02.661Z,2.00
2022-11-17T06:09:33.761Z,1.57
2022-11-17T06:12:05.532Z,2.00
2022-11-17T06:14:34.453Z,1.40
2022-11-17T06:17:07.146Z,1.70
2022-11-17T06:19:41.568Z,1.40
2022-11-17T06:22:13.285Z,1.63
2022-11-17T06:24:43.780Z,1.50
2022-11-17T06:27:12.109Z,1.63
2022-11-17T06:29:43.856Z,1.33
2022-11-17T06:32:12.103Z,1.63
2022-11-17T06:34:38.648Z,1.70
2022-11-17T06:37:04.980Z,1.70
2022-11-17T06:39:31.506Z,1.67
2022-11-17T06:41:57.913Z,1.83
2022-11-17T06:44:24.229Z,1.90
2022-11-17T06:46:50.642Z,1.60
2022-11-17T06:49:17.372Z,2.20
2022-11-17T06:51:45.336Z,1.83
2022-11-17T06:54:14.619Z,1.63
2022-11-17T06:56:41.686Z,1.60
2022-11-17T06:59:08.203Z,1.73
2022-11-17T07:01:34.599Z,1.60
2022-11-17T07:04:04.364Z,1.60
2022-11-17T07:06:31.816Z,1.50
2022-11-17T07:08:58.181Z,1.60
2022-11-17T07:11:24.551Z,1.60
2022-11-17T07:13:51.119Z,1.57
2022-11-17T07:16:23.535Z,1.80
2022-11-17T07:18:50.713Z,1.40
2022-11-17T07:21:18.029Z,1.43
2022-11-17T07:23:47.458Z,1.33
2022-11-17T07:26:14.462Z,2.30
2022-11-17T07:28:41.076Z,2.30
2022-11-17T07:31:09.106Z,1.90
2022-11-17T07:33:35.913Z,1.90
2022-11-17T07:36:07.159Z,1.90
2022-11-17T07:38:35.282Z,1.40
2022-11-17T07:41:03.392Z,1.23
2022-11-17T07:43:30.519Z,1.30
2022-11-17T07:45:57.211Z,1.47
2022-11-17T07:48:24.148Z,1.33
2022-11-17T07:50:51.008Z,1.40
2022-11-17T07:53:17.390Z,1.50
2022-11-17T07:55:43.915Z,1.33
2022-11-17T07:58:11.442Z,1.30
2022-11-17T08:00:37.927Z,1.03
2022-11-17T08:03:05.479Z,1.03
2022-11-17T08:05:41.821Z,0.93
2022-11-17T08:08:10.137Z,0.90
2022-11-17T08:10:36.764Z,0.77
2022-11-17T08:13:03.329Z,1.00
2022-11-17T08:15:30.775Z,0.80
2022-11-17T08:17:59.590Z,1.17
2022-11-17T08:20:28.651Z,1.40
2022-11-17T08:22:55.681Z,1.00
2022-11-17T08:25:24.671Z,0.90
2022-11-17T08:27:55.093Z,1.37
2022-11-17T08:30:22.184Z,0.80
2022-11-17T08:32:50.049Z,1.00
2022-11-17T08:35:17.170Z,1.10
2022-11-17T08:37:43.531Z,1.30
2022-11-17T08:40:11.297Z,0.87
2022-11-17T08:42:38.041Z,1.67
2022-11-17T08:45:05.777Z,1.10
2022-11-17T08:47:32.655Z,1.10
2022-11-17T08:49:59.050Z,1.00
2022-11-17T08:52:28.219Z,1.10
2022-11-17T08:54:54.795Z,1.23
2022-11-17T08:57:24.185Z,1.10
2022-11-17T08:59:50.853Z,1.00
2022-11-17T09:02:17.597Z,1.33
2022-11-17T09:04:46.136Z,1.10
2022-11-17T09:07:12.602Z,1.13
2022-11-17T09:09:39.281Z,1.20
2022-11-17T09:12:06.062Z,1.30
2022-11-17T09:14:32.500Z,1.33
2022-11-17T09:16:59.275Z,1.10
2022-11-17T09:19:25.864Z,1.40
2022-11-17T09:21:52.306Z,1.03
2022-11-17T09:24:18.773Z,1.40
2022-11-17T09:26:45.243Z,1.20
2022-11-17T09:29:11.748Z,2.70
2022-11-17T09:31:38.419Z,1.30
2022-11-17T09:34:05.838Z,1.10
2022-11-17T09:36:33.772Z,1.90
2022-11-17T09:39:00.924Z,1.23
2022-11-17T09:42:01.903Z,1.37
2022-11-17T09:44:31.248Z,1.33
2022-11-17T09:47:18.447Z,1.20
2022-11-17T09:50:09.825Z,1.10
2022-11-17T09:52:47.656Z,1.23
2022-11-17T09:55:14.140Z,1.13
2022-11-17T09:57:43.777Z,2.20
2022-11-17T10:00:16.866Z,1.77
2022-11-17T10:02:43.387Z,1.60
2022-11-17T10:05:34.362Z,1.23
2022-11-17T10:08:07.331Z,1.00
2022-11-17T10:10:36.815Z,1.13
2022-11-17T10:13:06.171Z,1.33
2022-11-17T10:15:44.439Z,1.40
2022-11-17T10:18:16.162Z,1.20
2022-11-17T10:20:44.428Z,1.53
2022-11-17T10:23:14.696Z,1.27
2022-11-17T10:25:46.585Z,1.57
2022-11-17T10:28:26.743Z,1.13
2022-11-17T10:31:01.635Z,0.83
2022-11-17T10:33:49.303Z,1.30
2022-11-17T10:36:30.321Z,0.80
2022-11-17T10:38:59.132Z,1.00
2022-11-17T10:41:30.470Z,1.23
2022-11-17T10:44:02.196Z,1.20
2022-11-17T10:46:38.186Z,1.43
2022-11-17T10:49:27.705Z,1.53
2022-11-17T10:52:15.641Z,1.13
2022-11-17T10:54:42.480Z,1.10
2022-11-17T10:57:16.876Z,1.33
2022-11-17T10:59:56.554Z,1.30
2022-11-17T11:02:39.072Z,0.90
2022-11-17T11:05:12.181Z,1.00
2022-11-17T11:07:39.772Z,0.90
2022-11-17T11:10:31.766Z,0.80
2022-11-17T11:13:30.007Z,0.93
2022-11-17T11:15:56.708Z,1.07
2022-11-17T11:18:23.326Z,1.10
2022-11-17T11:21:14.924Z,0.97
2022-11-17T11:23:50.339Z,1.00
2022-11-17T11:26:27.906Z,1.03
2022-11-17T11:29:15.394Z,1.00
2022-11-17T11:31:49.210Z,0.87
2022-11-17T11:34:34.370Z,1.10
2022-11-17T11:37:11.392Z,1.03
2022-11-17T11:40:10.599Z,0.90
2022-11-17T11:42:50.947Z,0.90
2022-11-17T11:45:36.691Z,0.90
2022-11-17T11:48:27.367Z,1.00
2022-11-17T11:51:05.187Z,1.70
2022-11-17T11:53:43.471Z,0.90
2022-11-17T11:56:29.726Z,1.10
2022-11-17T11:59:04.339Z,1.03
2022-11-17T12:02:02.712Z,1.03
2022-11-17T12:04:44.392Z,1.03
2022-11-17T12:07:20.143Z,1.10
2022-11-17T12:09:58.242Z,0.80
2022-11-17T12:12:34.022Z,0.93
2022-11-17T12:15:06.371Z,0.90
2022-11-17T12:17:33.405Z,1.10
2022-11-17T12:20:07.509Z,1.00
2022-11-17T12:22:36.015Z,0.90
2022-11-17T12:25:05.509Z,1.27
2022-11-17T12:27:34.759Z,1.00
2022-11-17T12:30:03.198Z,1.37
2022-11-17T12:32:44.946Z,1.20
2022-11-17T12:35:28.351Z,1.00
2022-11-17T12:38:12.775Z,0.90
2022-11-17T12:40:39.119Z,0.90
2022-11-17T12:43:14.716Z,1.00
2022-11-17T12:46:11.476Z,0.90
2022-11-17T12:48:40.295Z,2.60
2022-11-17T12:51:11.032Z,1.53
2022-11-17T12:53:51.236Z,1.37
2022-11-17T12:57:09.971Z,0.97
2022-11-17T12:59:55.130Z,1.97
2022-11-17T13:02:45.970Z,1.23
2022-11-17T13:05:19.456Z,1.00
2022-11-17T13:07:46.087Z,1.00
2022-11-17T13:10:29.391Z,1.30
2022-11-17T13:13:22.625Z,1.30
2022-11-17T13:15:51.966Z,1.83
2022-11-17T13:18:40.227Z,1.10
2022-11-17T13:21:36.482Z,1.17
2022-11-17T13:24:02.989Z,1.57
2022-11-17T13:26:38.400Z,1.50
2022-11-17T13:29:19.050Z,1.30
2022-11-17T13:31:46.282Z,1.30
2022-11-17T13:34:13.027Z,1.40
2022-11-17T13:36:56.326Z,1.30
2022-11-17T13:39:27.022Z,1.50
2022-11-17T13:41:55.678Z,1.40
2022-11-17T13:44:27.735Z,1.07
2022-11-17T13:46:54.176Z,1.20
2022-11-17T13:49:37.397Z,1.27
2022-11-17T13:52:13.368Z,1.13
2022-11-17T13:54:44.070Z,1.27
2022-11-17T13:57:26.921Z,1.20
2022-11-17T13:59:54.287Z,1.23
2022-11-17T14:02:20.590Z,1.20
2022-11-17T14:05:15.070Z,1.30
2022-11-17T14:07:42.895Z,1.30
2022-11-17T14:10:21.467Z,1.40
2022-11-17T14:12:48.574Z,1.60
2022-11-17T14:15:21.001Z,1.50
2022-11-17T14:17:51.947Z,1.30
2022-11-17T14:20:29.799Z,1.50
2022-11-17T14:23:17.867Z,0.93
2022-11-17T14:25:46.348Z,1.40
2022-11-17T14:28:18.166Z,1.20
2022-11-17T14:30:51.764Z,1.20
2022-11-17T14:33:18.627Z,1.10
2022-11-17T14:35:48.215Z,1.40
2022-11-17T14:38:17.814Z,1.20
2022-11-17T14:40:44.252Z,1.90
2022-11-17T14:43:10.938Z,1.20
2022-11-17T14:45:37.568Z,1.50
2022-11-17T14:48:07.810Z,1.27
2022-11-17T14:50:34.277Z,1.40
2022-11-17T14:53:00.703Z,1.43
2022-11-17T14:55:27.669Z,1.47
2022-11-17T14:57:54.282Z,1.60
2022-11-17T15:00:21.445Z,1.53
2022-11-17T15:02:48.531Z,1.60
2022-11-17T15:05:14.948Z,1.37
2022-11-17T15:07:42.475Z,1.20
2022-11-17T15:10:09.916Z,1.20
2022-11-17T15:12:37.455Z,1.40
2022-11-17T15:15:04.987Z,1.20
2022-11-17T15:17:31.507Z,1.30
2022-11-17T15:19:57.891Z,1.50
2022-11-17T15:22:24.214Z,1.40
2022-11-17T15:24:50.691Z,1.40
2022-11-17T15:27:17.057Z,1.50
2022-11-17T15:29:43.410Z,1.50
2022-11-17T15:32:10.681Z,1.87
2022-11-17T15:34:37.087Z,1.30
2022-11-17T15:37:03.634Z,1.50
2022-11-17T15:39:30.777Z,1.30
2022-11-17T15:41:57.300Z,1.97
2022-11-17T15:44:24.471Z,1.47
2022-11-17T15:46:50.968Z,1.70
2022-11-17T15:49:17.739Z,1.30
2022-11-17T15:51:44.708Z,1.17
2022-11-17T15:54:18.183Z,1.30
2022-11-17T15:56:46.773Z,1.43
2022-11-17T15:59:13.617Z,1.33
2022-11-17T16:01:40.883Z,1.57
2022-11-17T16:04:09.951Z,1.53
2022-11-17T16:06:41.322Z,1.30
2022-11-17T16:09:08.545Z,1.73
2022-11-17T16:11:36.294Z,1.70
2022-11-17T16:14:03.369Z,1.80
2022-11-17T16:16:39.401Z,1.20
2022-11-17T16:19:06.612Z,1.33
2022-11-17T16:21:33.048Z,1.27
2022-11-17T16:24:00.812Z,1.70
2022-11-17T16:26:28.590Z,1.47
2022-11-17T16:29:04.572Z,1.30
2022-11-17T16:31:33.182Z,2.00
2022-11-17T16:34:26.351Z,1.90
2022-11-17T16:36:52.832Z,2.20
2022-11-17T16:39:20.266Z,3.03
2022-11-17T16:41:47.197Z,2.17
2022-11-17T16:44:18.231Z,1.80
2022-11-17T16:46:47.219Z,1.83
2022-11-17T16:49:16.754Z,1.70
2022-11-17T16:51:51.908Z,1.87
2022-11-17T16:54:19.139Z,1.70
2022-11-17T16:56:46.007Z,1.67
2022-11-17T16:59:13.132Z,1.50
2022-11-17T17:01:39.754Z,1.63
2022-11-17T17:04:08.308Z,1.50
2022-11-17T17:06:35.438Z,1.70
2022-11-17T17:09:05.319Z,2.20
2022-11-17T17:11:33.665Z,1.33
2022-11-17T17:14:03.139Z,1.50
2022-11-17T17:16:32.169Z,1.70
2022-11-17T17:19:01.617Z,1.80
2022-11-17T17:21:28.994Z,1.60
2022-11-17T17:23:56.698Z,2.00
2022-11-17T17:26:25.962Z,1.93
2022-11-17T17:28:54.916Z,1.57
2022-11-17T17:31:23.314Z,1.53
2022-11-17T17:33:51.107Z,2.10
2022-11-17T17:36:20.550Z,1.77
2022-11-17T17:38:53.280Z,1.50
2022-11-17T17:41:22.394Z,1.40
2022-11-17T17:43:55.921Z,1.20
2022-11-17T17:46:22.353Z,1.43
2022-11-17T17:48:49.744Z,1.50
2022-11-17T17:51:20.622Z,1.47
2022-11-17T17:53:50.114Z,1.40
2022-11-17T17:56:18.971Z,1.40
2022-11-17T17:58:48.076Z,1.40
2022-11-17T18:01:18.858Z,1.23
2022-11-17T18:03:48.042Z,1.20
2022-11-17T18:06:16.363Z,1.53
2022-11-17T18:08:42.809Z,1.70
2022-11-17T18:11:12.644Z,1.70
2022-11-17T18:13:42.375Z,1.53
2022-11-17T18:16:14.737Z,1.73
2022-11-17T18:18:41.739Z,1.70
2022-11-17T18:21:13.869Z,1.73
2022-11-17T18:23:41.438Z,1.80
2022-11-17T18:26:16.921Z,1.80
2022-11-17T18:28:49.466Z,1.70
2022-11-17T18:31:15.852Z,1.80
2022-11-17T18:33:45.146Z,2.20
2022-11-17T18:36:12.050Z,1.80
2022-11-17T18:38:38.865Z,2.00
2022-11-17T18:41:11.246Z,1.77
2022-11-17T18:43:38.321Z,2.07
2022-11-17T18:46:06.022Z,2.10
2022-11-17T18:48:38.437Z,2.40
2022-11-17T18:51:21.222Z,2.30
2022-11-17T18:53:52.821Z,2.70
2022-11-17T18:56:22.982Z,2.10
2022-11-17T18:58:49.840Z,2.30
2022-11-17T19:01:18.017Z,1.63
2022-11-17T19:03:46.472Z,2.00
2022-11-17T19:06:14.576Z,1.80
2022-11-17T19:08:41.374Z,3.13
2022-11-17T19:11:09.528Z,4.20
2022-11-17T19:13:38.412Z,2.83
2022-11-17T19:16:11.629Z,2.13
2022-11-17T19:18:38.493Z,1.70
2022-11-17T19:21:26.773Z,2.10
2022-11-17T19:23:55.145Z,1.90
2022-11-17T19:26:26.889Z,1.83
2022-11-17T19:29:00.876Z,2.00
2022-11-17T19:31:28.290Z,1.63
2022-11-17T19:33:56.092Z,2.03
2022-11-17T19:36:33.479Z,2.40
2022-11-17T19:39:01.795Z,2.50
2022-11-17T19:41:31.543Z,1.80
2022-11-17T19:44:00.168Z,2.43
2022-11-17T19:46:28.803Z,2.13
2022-11-17T19:48:56.305Z,2.10
2022-11-17T19:51:22.632Z,2.20
2022-11-17T19:53:54.200Z,2.10
2022-11-17T19:56:21.826Z,2.03
2022-11-17T19:58:50.449Z,1.90
2022-11-17T20:01:22.441Z,1.50
2022-11-17T20:03:49.471Z,1.70
2022-11-17T20:06:21.471Z,2.23
2022-11-17T20:08:48.886Z,1.93
2022-11-17T20:11:17.759Z,2.07
2022-11-17T20:13:44.886Z,1.80
2022-11-17T20:16:24.310Z,1.60
2022-11-17T20:18:52.867Z,1.90
2022-11-17T20:21:19.830Z,1.80
2022-11-17T20:23:47.027Z,1.50
2022-11-17T20:26:19.602Z,1.70
2022-11-17T20:28:47.842Z,1.90
2022-11-17T20:31:16.121Z,1.73
2022-11-17T20:33:43.626Z,1.87
2022-11-17T20:36:13.354Z,1.63
2022-11-17T20:38:39.859Z,2.00
2022-11-17T20:41:06.750Z,1.80
2022-11-17T20:43:34.352Z,2.10
2022-11-17T20:46:01.540Z,2.10
2022-11-17T20:48:33.938Z,2.20
2022-11-17T20:51:11.779Z,2.03
2022-11-17T20:53:39.391Z,2.00
2022-11-17T20:56:08.120Z,2.77
2022-11-17T20:58:35.192Z,2.17
2022-11-17T21:01:15.608Z,2.30
2022-11-17T21:03:43.068Z,2.43
2022-11-17T21:06:10.181Z,2.43
2022-11-17T21:08:38.412Z,2.90
2022-11-17T21:11:07.667Z,2.90
2022-11-17T21:13:35.846Z,2.07
2022-11-17T21:16:14.487Z,2.13
2022-11-17T21:18:48.292Z,2.50
2022-11-17T21:21:15.575Z,2.40
2022-11-17T21:23:44.047Z,2.20
2022-11-17T21:26:13.068Z,1.70
2022-11-17T21:28:41.299Z,1.80
2022-11-17T21:31:13.766Z,1.90
2022-11-17T21:33:40.916Z,2.00
2022-11-17T21:36:12.242Z,1.80
2022-11-17T21:38:39.090Z,1.67
2022-11-17T21:41:08.410Z,1.80
2022-11-17T21:43:39.679Z,1.83
2022-11-17T21:46:11.537Z,2.17
2022-11-17T21:48:38.532Z,1.67
2022-11-17T21:51:07.398Z,1.90
2022-11-17T21:53:34.053Z,2.03
2022-11-17T21:56:05.534Z,2.03
2022-11-17T21:58:32.475Z,2.20
2022-11-17T22:01:05.480Z,2.40
2022-11-17T22:03:31.901Z,2.20
2022-11-17T22:06:07.131Z,1.73
2022-11-17T22:08:38.091Z,1.80
2022-11-17T22:11:10.663Z,1.87
2022-11-17T22:13:37.397Z,2.10
2022-11-17T22:16:09.781Z,1.90
2022-11-17T22:18:36.352Z,2.20
2022-11-17T22:21:02.857Z,2.20
2022-11-17T22:23:30.424Z,2.40
2022-11-17T22:25:59.051Z,2.70
2022-11-17T22:28:26.451Z,1.97
2022-11-17T22:30:53.738Z,2.47
2022-11-17T22:33:21.749Z,2.10
2022-11-17T22:35:48.563Z,2.20
2022-11-17T22:38:15.856Z,2.10
2022-11-17T22:40:42.471Z,2.27
2022-11-17T22:43:14.607Z,2.00
2022-11-17T22:45:41.763Z,2.17
2022-11-17T22:48:08.900Z,2.30
2022-11-17T22:50:36.326Z,1.97
2022-11-17T22:53:03.497Z,1.90
2022-11-17T22:55:30.110Z,1.80
2022-11-17T22:57:56.511Z,2.10
2022-11-17T23:00:23.079Z,2.20
2022-11-17T23:02:49.590Z,1.90
2022-11-17T23:05:16.202Z,1.73
2022-11-17T23:07:42.908Z,1.90
2022-11-17T23:10:10.421Z,2.13
2022-11-17T23:12:37.082Z,2.27
2022-11-17T23:15:03.928Z,2.13
2022-11-17T23:17:30.265Z,2.27
2022-11-17T23:19:56.760Z,2.13
2022-11-17T23:22:23.267Z,2.10
2022-11-17T23:24:49.965Z,1.80
2022-11-17T23:27:16.306Z,2.50
2022-11-17T23:29:42.728Z,2.30
2022-11-17T23:32:09.579Z,1.97
2022-11-17T23:34:36.277Z,2.00
2022-11-17T23:37:04.114Z,2.00
2022-11-17T23:39:30.679Z,2.10
2022-11-17T23:41:57.075Z,1.90
2022-11-17T23:44:23.397Z,2.00
2022-11-17T23:46:50.024Z,1.97
2022-11-17T23:49:16.889Z,2.30
2022-11-17T23:51:43.431Z,1.90
2022-11-17T23:54:13.643Z,2.03
2022-11-17T23:56:40.694Z,1.80
2022-11-17T23:59:08.135Z,1.87
